createdAt,value
2023-12-15T00:00:35.385Z,29.73
2023-12-15T00:03:03.416Z,24.10
2023-12-15T00:05:30.295Z,29.77
2023-12-15T00:07:57.688Z,30.20
2023-12-15T00:10:24.598Z,29.33
2023-12-15T00:12:51.453Z,25.23
2023-12-15T00:15:18.404Z,25.10
2023-12-15T00:17:45.617Z,31.33
2023-12-15T00:20:13.077Z,24.63
2023-12-15T00:22:39.998Z,22.23
2023-12-15T00:25:07.182Z,26.40
2023-12-15T00:27:34.581Z,24.07
2023-12-15T00:30:01.680Z,26.10
2023-12-15T00:32:28.637Z,24.93
2023-12-15T00:34:55.638Z,22.03
2023-12-15T00:37:22.592Z,25.53
2023-12-15T00:39:49.941Z,25.03
2023-12-15T00:42:16.862Z,25.33
2023-12-15T00:44:43.792Z,25.60
2023-12-15T00:47:10.738Z,26.37
2023-12-15T00:49:37.765Z,29.53
2023-12-15T00:52:05.373Z,29.57
2023-12-15T00:54:32.261Z,25.70
2023-12-15T00:56:59.166Z,22.80
2023-12-15T00:59:26.791Z,22.70
2023-12-15T01:01:53.696Z,21.20
2023-12-15T01:04:20.537Z,22.17
2023-12-15T01:06:47.605Z,21.30
2023-12-15T01:09:14.527Z,25.67
2023-12-15T01:11:41.415Z,26.23
2023-12-15T01:14:08.556Z,23.77
2023-12-15T01:16:35.783Z,22.37
2023-12-15T01:19:02.779Z,25.17
2023-12-15T01:21:29.936Z,29.00
2023-12-15T01:23:56.819Z,23.63
2023-12-15T01:26:24.285Z,30.70
2023-12-15T01:28:51.432Z,23.00
2023-12-15T01:31:18.306Z,21.77
2023-12-15T01:33:45.647Z,22.90
2023-12-15T01:36:12.511Z,25.80
2023-12-15T01:38:39.371Z,23.80
2023-12-15T01:41:06.514Z,29.77
2023-12-15T01:43:34.229Z,24.83
2023-12-15T01:46:05.338Z,21.77
2023-12-15T01:48:40.812Z,18.83
2023-12-15T01:51:07.935Z,24.97
2023-12-15T01:53:34.913Z,22.10
2023-12-15T01:56:01.870Z,23.70
2023-12-15T01:58:28.768Z,30.57
2023-12-15T02:00:55.777Z,30.03
2023-12-15T02:03:22.729Z,26.07
2023-12-15T02:05:50.493Z,29.77
2023-12-15T02:08:17.480Z,21.53
2023-12-15T02:10:44.352Z,24.50
2023-12-15T02:13:11.440Z,30.03
2023-12-15T02:15:38.300Z,28.03
2023-12-15T02:18:05.162Z,23.10
2023-12-15T02:20:32.437Z,25.77
2023-12-15T02:23:00.486Z,22.93
2023-12-15T02:25:27.583Z,26.53
2023-12-15T02:27:54.971Z,22.03
2023-12-15T02:30:22.081Z,25.13
2023-12-15T02:32:49.597Z,24.17
2023-12-15T02:35:18.021Z,32.20
2023-12-15T02:37:45.128Z,31.03
2023-12-15T02:40:12.306Z,30.83
2023-12-15T02:42:39.176Z,32.43
2023-12-15T02:45:06.919Z,34.07
2023-12-15T02:47:33.905Z,28.97
2023-12-15T02:50:00.997Z,24.63
2023-12-15T02:52:27.981Z,28.03
2023-12-15T02:54:55.048Z,25.10
2023-12-15T02:57:21.874Z,33.17
2023-12-15T02:59:48.689Z,25.60
2023-12-15T03:02:15.605Z,29.67
2023-12-15T03:04:42.483Z,20.57
2023-12-15T03:07:09.313Z,27.23
2023-12-15T03:09:36.172Z,22.73
2023-12-15T03:12:03.340Z,22.73
2023-12-15T03:14:30.277Z,26.00
2023-12-15T03:16:57.508Z,33.13
2023-12-15T03:19:24.726Z,32.03
2023-12-15T03:21:51.815Z,27.13
2023-12-15T03:24:18.637Z,28.27
2023-12-15T03:26:45.455Z,22.33
2023-12-15T03:29:12.377Z,23.60
2023-12-15T03:31:42.364Z,34.70
2023-12-15T03:34:09.765Z,27.87
2023-12-15T03:36:40.559Z,28.00
2023-12-15T03:39:08.730Z,31.67
2023-12-15T03:41:35.724Z,28.93
2023-12-15T03:44:02.961Z,29.37
2023-12-15T03:46:30.567Z,31.80
2023-12-15T03:48:57.447Z,26.57
2023-12-15T03:51:24.349Z,32.90
2023-12-15T03:53:51.575Z,36.50
2023-12-15T03:56:28.305Z,31.93
2023-12-15T03:58:55.626Z,30.83
2023-12-15T04:01:22.553Z,31.73
2023-12-15T04:03:49.469Z,31.90
2023-12-15T04:06:16.469Z,36.00
2023-12-15T04:08:43.943Z,34.30
2023-12-15T04:11:11.164Z,34.43
2023-12-15T04:13:38.187Z,32.43
2023-12-15T04:16:06.622Z,34.03
2023-12-15T04:18:35.050Z,33.80
2023-12-15T04:21:04.926Z,34.33
2023-12-15T04:23:32.903Z,31.87
2023-12-15T04:26:00.420Z,37.70
2023-12-15T04:28:27.755Z,34.97
2023-12-15T04:30:54.818Z,30.60
2023-12-15T04:33:21.842Z,23.43
2023-12-15T04:35:48.799Z,33.30
2023-12-15T04:38:15.791Z,31.53
2023-12-15T04:40:43.655Z,26.20
2023-12-15T04:43:11.258Z,33.00
2023-12-15T04:45:38.968Z,30.93
2023-12-15T04:48:06.276Z,33.13
2023-12-15T04:50:36.065Z,33.43
2023-12-15T04:53:03.926Z,25.57
2023-12-15T04:55:31.405Z,27.60
2023-12-15T04:57:58.491Z,27.07
2023-12-15T05:00:25.761Z,26.30
2023-12-15T05:02:52.574Z,27.67
2023-12-15T05:05:22.058Z,27.30
2023-12-15T05:07:49.574Z,25.13
2023-12-15T05:10:16.533Z,22.93
2023-12-15T05:12:43.640Z,23.23
2023-12-15T05:15:10.827Z,20.63
2023-12-15T05:17:38.143Z,20.57
2023-12-15T05:20:06.436Z,21.20
2023-12-15T05:22:33.269Z,23.77
2023-12-15T05:25:00.736Z,21.40
2023-12-15T05:27:27.664Z,21.03
2023-12-15T05:29:54.532Z,22.13
2023-12-15T05:32:21.818Z,17.17
2023-12-15T05:34:48.808Z,19.63
2023-12-15T05:37:15.698Z,18.83
2023-12-15T05:39:46.297Z,21.43
2023-12-15T05:42:13.580Z,17.30
2023-12-15T05:44:43.282Z,22.10
2023-12-15T05:47:10.600Z,25.07
2023-12-15T05:49:41.670Z,22.03
2023-12-15T05:52:10.883Z,20.43
2023-12-15T05:54:41.908Z,22.23
2023-12-15T05:57:11.138Z,19.17
2023-12-15T05:59:40.428Z,18.33
2023-12-15T06:02:07.477Z,20.50
2023-12-15T06:04:34.575Z,17.83
2023-12-15T06:07:01.390Z,17.90
2023-12-15T06:09:28.515Z,21.67
2023-12-15T06:11:56.290Z,22.87
2023-12-15T06:14:23.302Z,20.63
2023-12-15T06:16:50.304Z,18.80
2023-12-15T06:19:17.550Z,19.10
2023-12-15T06:21:44.514Z,17.77
2023-12-15T06:24:11.344Z,13.53
2023-12-15T06:26:38.396Z,17.37
2023-12-15T06:29:05.652Z,12.17
2023-12-15T06:31:32.759Z,13.43
2023-12-15T06:33:59.802Z,10.03
2023-12-15T06:36:30.841Z,11.47
2023-12-15T06:38:58.042Z,15.87
2023-12-15T06:41:25.071Z,15.20
2023-12-15T06:43:51.929Z,15.60
2023-12-15T06:46:18.812Z,13.97
2023-12-15T06:48:46.008Z,13.47
2023-12-15T06:51:12.983Z,14.40
2023-12-15T06:53:39.899Z,11.60
2023-12-15T06:56:10.077Z,13.93
2023-12-15T06:58:37.035Z,10.97
2023-12-15T07:01:05.769Z,12.97
2023-12-15T07:03:32.944Z,13.70
2023-12-15T07:05:59.898Z,10.67
2023-12-15T07:08:26.792Z,11.30
2023-12-15T07:10:53.956Z,11.87
2023-12-15T07:13:20.804Z,10.50
2023-12-15T07:15:47.608Z,19.43
2023-12-15T07:18:14.657Z,13.50
2023-12-15T07:20:41.623Z,13.20
2023-12-15T07:23:08.586Z,11.83
2023-12-15T07:25:38.158Z,14.80
2023-12-15T07:28:05.308Z,14.70
2023-12-15T07:30:32.228Z,14.40
2023-12-15T07:32:59.286Z,13.20
2023-12-15T07:35:32.368Z,10.57
2023-12-15T07:38:00.726Z,14.10
2023-12-15T07:40:27.672Z,12.30
2023-12-15T07:42:55.034Z,12.60
2023-12-15T07:45:22.281Z,13.63
2023-12-15T07:47:49.361Z,14.70
2023-12-15T07:50:16.641Z,15.50
2023-12-15T07:52:43.553Z,14.40
2023-12-15T07:55:10.465Z,16.67
2023-12-15T07:57:37.762Z,17.27
2023-12-15T08:00:08.528Z,16.37
2023-12-15T08:02:39.128Z,13.67
2023-12-15T08:05:07.009Z,18.30
2023-12-15T08:07:34.143Z,12.40
2023-12-15T08:10:01.540Z,16.67
2023-12-15T08:12:28.343Z,27.13
2023-12-15T08:14:55.167Z,15.70
2023-12-15T08:17:22.360Z,18.83
2023-12-15T08:19:49.281Z,19.47
2023-12-15T08:22:16.114Z,16.00
2023-12-15T08:24:44.343Z,14.20
2023-12-15T08:27:11.475Z,18.00
2023-12-15T08:29:38.370Z,15.73
2023-12-15T08:32:05.593Z,31.57
2023-12-15T08:34:33.557Z,16.83
2023-12-15T08:37:01.095Z,36.47
2023-12-15T08:39:28.173Z,14.33
2023-12-15T08:41:55.001Z,18.63
2023-12-15T08:44:29.293Z,24.83
2023-12-15T08:47:00.795Z,40.97
2023-12-15T08:49:29.130Z,30.60
2023-12-15T08:51:56.483Z,25.23
2023-12-15T08:54:23.686Z,28.10
2023-12-15T08:56:50.742Z,23.80
2023-12-15T08:59:17.896Z,18.07
2023-12-15T09:01:44.784Z,17.13
2023-12-15T09:04:11.659Z,14.43
2023-12-15T09:06:43.129Z,20.47
2023-12-15T09:09:13.092Z,25.53
2023-12-15T09:11:40.563Z,48.53
2023-12-15T09:14:08.072Z,46.37
2023-12-15T09:16:35.066Z,23.17
2023-12-15T09:19:02.191Z,16.47
2023-12-15T09:21:29.170Z,15.73
2023-12-15T09:23:58.435Z,14.00
2023-12-15T09:26:26.658Z,10.67
2023-12-15T09:28:55.287Z,10.43
2023-12-15T09:31:22.358Z,7.63
2023-12-15T09:33:49.860Z,7.73
2023-12-15T09:36:16.999Z,5.70
2023-12-15T09:38:43.859Z,7.33
2023-12-15T09:41:11.140Z,7.13
2023-12-15T09:43:38.079Z,9.53
2023-12-15T09:46:06.185Z,7.87
2023-12-15T09:48:34.388Z,8.80
2023-12-15T09:51:11.037Z,7.87
2023-12-15T09:53:39.935Z,8.57
2023-12-15T09:56:07.735Z,9.53
2023-12-15T09:58:35.464Z,12.60
2023-12-15T10:01:03.014Z,9.13
2023-12-15T10:03:29.928Z,9.17
2023-12-15T10:05:56.763Z,10.37
2023-12-15T10:08:25.763Z,10.47
2023-12-15T10:10:53.420Z,12.50
2023-12-15T10:13:20.861Z,8.03
2023-12-15T10:15:54.636Z,7.17
2023-12-15T10:18:29.344Z,9.53
2023-12-15T10:21:02.748Z,8.87
2023-12-15T10:23:31.821Z,7.13
2023-12-15T10:26:08.000Z,8.40
2023-12-15T10:28:40.136Z,8.83
2023-12-15T10:31:08.870Z,9.40
2023-12-15T10:33:37.131Z,8.83
2023-12-15T10:36:08.224Z,8.70
2023-12-15T10:38:36.033Z,9.60
2023-12-15T10:41:03.479Z,8.33
2023-12-15T10:43:33.225Z,10.90
2023-12-15T10:46:04.363Z,13.53
2023-12-15T10:48:33.149Z,11.20
2023-12-15T10:51:01.371Z,15.20
2023-12-15T10:53:28.629Z,20.33
2023-12-15T10:55:55.858Z,20.50
2023-12-15T10:58:22.835Z,23.47
2023-12-15T11:00:49.998Z,27.30
2023-12-15T11:03:17.356Z,16.43
2023-12-15T11:05:44.423Z,16.20
2023-12-15T11:08:13.196Z,25.53
2023-12-15T11:10:40.237Z,34.57
2023-12-15T11:13:59.957Z,22.90
2023-12-15T11:16:30.800Z,24.27
2023-12-15T11:19:01.802Z,47.90
2023-12-15T11:21:29.938Z,14.00
2023-12-15T11:24:04.617Z,15.00
2023-12-15T11:26:40.934Z,18.10
2023-12-15T11:29:20.761Z,23.13
2023-12-15T11:31:47.610Z,25.27
2023-12-15T11:34:44.475Z,28.80
2023-12-15T11:37:12.805Z,38.03
2023-12-15T11:39:40.517Z,50.40
2023-12-15T11:42:08.595Z,39.73
2023-12-15T11:44:35.646Z,30.23
2023-12-15T11:47:02.558Z,21.47
2023-12-15T11:49:29.637Z,17.63
2023-12-15T11:51:56.510Z,56.53
2023-12-15T11:54:26.511Z,58.03
2023-12-15T11:56:54.049Z,32.60
2023-12-15T11:59:20.932Z,22.07
2023-12-15T12:01:49.701Z,35.60
2023-12-15T12:04:20.487Z,18.77
2023-12-15T12:06:48.057Z,28.67
2023-12-15T12:09:15.738Z,18.33
2023-12-15T12:11:42.644Z,32.07
2023-12-15T12:14:11.730Z,29.03
2023-12-15T12:16:38.632Z,46.87
2023-12-15T12:19:06.062Z,15.77
2023-12-15T12:21:33.177Z,15.83
2023-12-15T12:24:01.145Z,15.27
2023-12-15T12:26:29.237Z,22.13
2023-12-15T12:29:00.653Z,22.60
2023-12-15T12:31:29.716Z,17.43
2023-12-15T12:33:56.692Z,19.20
2023-12-15T12:36:23.908Z,21.63
2023-12-15T12:38:50.943Z,25.30
2023-12-15T12:41:18.152Z,31.53
2023-12-15T12:43:45.304Z,25.60
2023-12-15T12:46:15.539Z,37.30
2023-12-15T12:48:47.899Z,28.77
2023-12-15T12:51:15.173Z,25.50
2023-12-15T12:53:42.130Z,24.70
2023-12-15T12:56:11.901Z,23.23
2023-12-15T12:58:39.241Z,22.80
2023-12-15T13:01:06.693Z,20.13
2023-12-15T13:03:33.908Z,25.23
2023-12-15T13:06:00.957Z,23.13
2023-12-15T13:08:27.972Z,21.53
2023-12-15T13:10:54.892Z,21.20
2023-12-15T13:13:23.417Z,24.33
2023-12-15T13:15:50.412Z,21.00
2023-12-15T13:18:17.423Z,24.43
2023-12-15T13:20:44.403Z,22.13
2023-12-15T13:23:11.325Z,22.97
2023-12-15T13:25:38.213Z,19.03
2023-12-15T13:28:07.227Z,20.50
2023-12-15T13:30:34.629Z,23.73
2023-12-15T13:33:01.789Z,25.40
2023-12-15T13:35:28.704Z,23.23
2023-12-15T13:37:55.732Z,22.77
2023-12-15T13:40:23.299Z,20.63
2023-12-15T13:42:50.147Z,22.27
2023-12-15T13:45:19.028Z,28.73
2023-12-15T13:47:45.928Z,26.37
2023-12-15T13:50:12.968Z,22.23
2023-12-15T13:52:40.192Z,24.13
2023-12-15T13:55:08.058Z,25.50
2023-12-15T13:57:35.129Z,23.20
2023-12-15T14:00:02.197Z,17.63
2023-12-15T14:02:37.015Z,21.23
2023-12-15T14:05:04.760Z,21.17
2023-12-15T14:07:31.818Z,21.77
2023-12-15T14:09:58.654Z,22.67
2023-12-15T14:12:27.507Z,25.53
2023-12-15T14:14:57.602Z,24.93
2023-12-15T14:17:29.083Z,23.83
2023-12-15T14:19:57.231Z,25.80
2023-12-15T14:22:24.215Z,20.10
2023-12-15T14:24:51.153Z,23.37
2023-12-15T14:27:18.010Z,22.87
2023-12-15T14:29:46.257Z,25.57
2023-12-15T14:32:14.927Z,27.63
2023-12-15T14:34:41.836Z,24.53
2023-12-15T14:37:08.644Z,22.77
2023-12-15T14:39:38.843Z,25.50
2023-12-15T14:42:05.772Z,31.63
2023-12-15T14:44:33.336Z,26.77
2023-12-15T14:47:03.749Z,24.53
2023-12-15T14:49:31.559Z,26.80
2023-12-15T14:51:58.609Z,21.17
2023-12-15T14:54:25.470Z,25.00
2023-12-15T14:56:52.399Z,21.20
2023-12-15T14:59:19.430Z,20.97
2023-12-15T15:01:47.460Z,23.57
2023-12-15T15:04:14.569Z,26.10
2023-12-15T15:06:46.119Z,21.47
2023-12-15T15:09:14.126Z,20.70
2023-12-15T15:11:41.016Z,26.70
2023-12-15T15:14:08.433Z,19.90
2023-12-15T15:16:35.808Z,23.37
2023-12-15T15:19:02.836Z,24.37
2023-12-15T15:21:30.292Z,25.77
2023-12-15T15:24:00.271Z,23.73
2023-12-15T15:26:30.566Z,24.93
2023-12-15T15:28:58.505Z,29.00
2023-12-15T15:31:26.033Z,25.17
2023-12-15T15:33:55.101Z,24.70
2023-12-15T15:36:27.181Z,24.60
2023-12-15T15:38:54.742Z,26.87
2023-12-15T15:41:26.247Z,26.87
2023-12-15T15:44:02.157Z,23.97
2023-12-15T15:46:33.601Z,24.30
2023-12-15T15:49:00.783Z,28.07
2023-12-15T15:51:28.351Z,26.57
2023-12-15T15:53:55.154Z,26.80
2023-12-15T15:56:22.918Z,22.70
2023-12-15T15:58:49.865Z,32.00
2023-12-15T16:01:35.406Z,31.33
2023-12-15T16:04:08.509Z,29.10
2023-12-15T16:06:35.749Z,31.17
2023-12-15T16:09:02.761Z,40.27
2023-12-15T16:11:29.631Z,26.77
2023-12-15T16:14:02.284Z,30.27
2023-12-15T16:16:35.159Z,34.50
2023-12-15T16:19:02.125Z,25.63
2023-12-15T16:21:29.059Z,31.10
2023-12-15T16:23:55.938Z,31.23
2023-12-15T16:26:23.283Z,33.37
2023-12-15T16:28:50.125Z,27.23
2023-12-15T16:31:17.147Z,32.67
2023-12-15T16:33:44.126Z,34.83
2023-12-15T16:36:21.568Z,36.87
2023-12-15T16:38:49.065Z,37.83
2023-12-15T16:41:42.354Z,26.20
2023-12-15T16:44:09.189Z,30.07
2023-12-15T16:46:36.328Z,26.13
2023-12-15T16:49:04.377Z,30.03
2023-12-15T16:51:36.698Z,26.80
2023-12-15T16:54:04.183Z,35.77
2023-12-15T16:56:31.387Z,29.50
2023-12-15T16:58:58.468Z,29.27
2023-12-15T17:01:25.825Z,32.70
2023-12-15T17:03:52.791Z,31.63
2023-12-15T17:06:19.762Z,32.90
2023-12-15T17:08:47.023Z,38.67
2023-12-15T17:11:15.932Z,36.80
2023-12-15T17:13:42.932Z,25.83
2023-12-15T17:16:17.246Z,36.37
2023-12-15T17:18:48.221Z,32.53
2023-12-15T17:21:16.253Z,31.93
2023-12-15T17:23:43.200Z,36.40
2023-12-15T17:26:10.676Z,30.60
2023-12-15T17:28:37.643Z,35.77
2023-12-15T17:31:06.396Z,27.97
2023-12-15T17:33:33.688Z,30.33
2023-12-15T17:36:00.624Z,35.57
2023-12-15T17:38:27.708Z,24.53
2023-12-15T17:40:54.773Z,29.27
2023-12-15T17:43:24.233Z,35.40
2023-12-15T17:45:54.552Z,31.00
2023-12-15T17:48:22.150Z,29.27
2023-12-15T17:50:49.835Z,35.40
2023-12-15T17:53:17.276Z,23.90
2023-12-15T17:55:44.420Z,28.50
2023-12-15T17:58:12.811Z,28.70
2023-12-15T18:00:42.106Z,33.83
2023-12-15T18:03:09.520Z,33.53
2023-12-15T18:05:36.384Z,35.70
2023-12-15T18:08:04.008Z,33.03
2023-12-15T18:10:31.137Z,36.00
2023-12-15T18:12:58.038Z,52.00
2023-12-15T18:15:24.984Z,31.77
2023-12-15T18:17:52.129Z,33.80
2023-12-15T18:20:19.587Z,29.17
2023-12-15T18:22:46.937Z,37.10
2023-12-15T18:25:16.502Z,35.93
2023-12-15T18:27:45.005Z,37.80
2023-12-15T18:30:15.987Z,38.40
2023-12-15T18:32:43.645Z,29.57
2023-12-15T18:35:10.699Z,30.33
2023-12-15T18:37:38.685Z,35.40
2023-12-15T18:40:10.103Z,27.93
2023-12-15T18:42:37.328Z,31.20
2023-12-15T18:45:05.069Z,37.47
2023-12-15T18:47:32.059Z,34.10
2023-12-15T18:50:02.787Z,37.03
2023-12-15T18:52:30.917Z,30.73
2023-12-15T18:54:57.913Z,34.60
2023-12-15T18:57:27.418Z,26.13
2023-12-15T18:59:55.535Z,38.00
2023-12-15T19:02:22.909Z,34.47
2023-12-15T19:04:49.821Z,31.43
2023-12-15T19:07:17.882Z,29.57
2023-12-15T19:09:44.808Z,34.60
2023-12-15T19:12:11.630Z,27.03
2023-12-15T19:14:38.455Z,32.13
2023-12-15T19:17:05.276Z,24.40
2023-12-15T19:19:32.302Z,30.20
2023-12-15T19:21:59.448Z,29.63
2023-12-15T19:24:26.312Z,23.27
2023-12-15T19:26:53.138Z,35.27
2023-12-15T19:29:19.962Z,32.33
2023-12-15T19:31:46.946Z,31.07
2023-12-15T19:34:13.951Z,35.43
2023-12-15T19:36:41.596Z,30.97
2023-12-15T19:39:10.462Z,29.43
2023-12-15T19:41:39.279Z,26.00
2023-12-15T19:44:07.070Z,26.93
2023-12-15T19:46:36.932Z,25.00
2023-12-15T19:49:09.154Z,21.83
2023-12-15T19:51:36.064Z,32.07
2023-12-15T19:54:12.324Z,22.27
2023-12-15T19:56:44.130Z,29.23
2023-12-15T19:59:11.124Z,23.53
2023-12-15T20:01:38.138Z,20.97
2023-12-15T20:04:05.576Z,29.37
2023-12-15T20:06:35.783Z,20.20
2023-12-15T20:09:06.020Z,24.13
2023-12-15T20:11:38.124Z,25.73
2023-12-15T20:14:07.134Z,27.30
2023-12-15T20:16:34.906Z,23.50
2023-12-15T20:19:02.295Z,25.90
2023-12-15T20:21:29.766Z,22.67
2023-12-15T20:23:58.742Z,31.73
2023-12-15T20:26:25.700Z,24.23
2023-12-15T20:28:52.530Z,21.07
2023-12-15T20:31:19.487Z,17.13
2023-12-15T20:33:46.881Z,23.53
2023-12-15T20:36:22.410Z,25.47
2023-12-15T20:38:49.513Z,18.23
2023-12-15T20:41:21.611Z,24.80
2023-12-15T20:43:52.605Z,27.80
2023-12-15T20:46:19.732Z,17.73
2023-12-15T20:48:47.207Z,17.53
2023-12-15T20:51:19.509Z,19.37
2023-12-15T20:53:46.749Z,18.20
2023-12-15T20:56:13.832Z,21.40
2023-12-15T20:58:40.670Z,22.50
2023-12-15T21:01:09.151Z,15.90
2023-12-15T21:03:36.328Z,18.83
2023-12-15T21:06:03.282Z,20.73
2023-12-15T21:08:30.189Z,15.73
2023-12-15T21:10:57.034Z,20.83
2023-12-15T21:13:23.960Z,17.40
2023-12-15T21:15:51.113Z,20.23
2023-12-15T21:18:17.996Z,19.03
2023-12-15T21:20:45.910Z,17.30
2023-12-15T21:23:12.719Z,18.50
2023-12-15T21:25:39.596Z,17.53
2023-12-15T21:28:06.446Z,14.83
2023-12-15T21:30:34.206Z,14.40
2023-12-15T21:33:01.207Z,24.67
2023-12-15T21:35:32.148Z,17.87
2023-12-15T21:38:01.333Z,28.20
2023-12-15T21:40:28.228Z,21.13
2023-12-15T21:42:55.085Z,17.67
2023-12-15T21:45:22.053Z,17.30
2023-12-15T21:47:49.513Z,16.00
2023-12-15T21:50:16.590Z,21.33
2023-12-15T21:52:43.469Z,26.30
2023-12-15T21:55:10.879Z,18.67
2023-12-15T21:57:38.975Z,14.73
2023-12-15T22:00:10.924Z,14.93
2023-12-15T22:02:42.304Z,18.33
2023-12-15T22:05:09.993Z,21.57
2023-12-15T22:07:37.837Z,15.77
2023-12-15T22:10:05.540Z,13.67
2023-12-15T22:12:32.369Z,10.67
2023-12-15T22:14:59.220Z,15.90
2023-12-15T22:17:26.110Z,12.40
2023-12-15T22:19:52.973Z,19.80
2023-12-15T22:22:19.978Z,18.43
2023-12-15T22:24:46.892Z,14.03
2023-12-15T22:27:14.022Z,11.20
2023-12-15T22:29:40.845Z,16.53
2023-12-15T22:32:07.666Z,16.77
2023-12-15T22:34:34.804Z,12.60
2023-12-15T22:37:01.992Z,12.83
2023-12-15T22:39:28.876Z,16.83
2023-12-15T22:41:55.727Z,16.47
2023-12-15T22:44:22.809Z,15.43
2023-12-15T22:46:49.694Z,15.30
2023-12-15T22:49:16.608Z,11.97
2023-12-15T22:51:43.486Z,16.57
2023-12-15T22:54:16.433Z,13.57
2023-12-15T22:56:44.381Z,10.53
2023-12-15T22:59:14.671Z,13.07
2023-12-15T23:01:41.697Z,9.70
2023-12-15T23:04:09.074Z,16.00
2023-12-15T23:06:36.536Z,15.87
2023-12-15T23:09:08.801Z,10.23
2023-12-15T23:11:37.801Z,15.27
2023-12-15T23:14:04.924Z,8.83
2023-12-15T23:16:32.346Z,13.53
2023-12-15T23:18:59.724Z,14.07
2023-12-15T23:21:29.262Z,9.03
2023-12-15T23:23:56.856Z,12.13
2023-12-15T23:26:24.620Z,11.00
2023-12-15T23:28:51.841Z,16.50
2023-12-15T23:31:18.805Z,15.43
2023-12-15T23:33:45.829Z,14.03
2023-12-15T23:36:14.453Z,11.10
2023-12-15T23:38:42.069Z,11.40
2023-12-15T23:41:09.556Z,9.07
2023-12-15T23:43:37.162Z,12.07
2023-12-15T23:46:04.391Z,7.43
2023-12-15T23:48:31.359Z,6.90
2023-12-15T23:50:58.506Z,11.33
2023-12-15T23:53:25.684Z,9.60
2023-12-15T23:55:52.591Z,14.20
2023-12-15T23:58:19.523Z,12.30
